Masuei Maru — JD4083 — position and weather

sailwx.info

Track history (hours):
 
Tides and Currents Weather Stations Pressure Air Temp Water Temp Dewpoint Dewpoint Depression Visibility Wind Speed Wind Dir Waves Ship Positions

Masuei Maru

Last reported at 2017-Dec-17 07:06 UTC. Time now 2017-Dec-17 15:59 UTC.
Position N 34°34' E 138°15'.

Length 75 m; draft 4.5 m.

Type: Cargo ship. MMSI: 431008431.

Date/timePositionNaut miles runAvg speedWind from/ knotsBaromVisibWave heightAir tempDewpointWater temp
2017-Dec-17 07:06N 34°34' E 138°15'2 9.4
2017-Dec-17 06:52N 34°34' E 138°18'6 9.5
2017-Dec-17 06:15N 34°36' E 138°24'310.1
2017-Dec-17 05:56N 34°36' E 138°28'5 9.7
2017-Dec-17 05:28N 34°37' E 138°34'510.4
2017-Dec-17 04:59N 34°36' E 138°40'5 9.6
2017-Dec-17 04:29N 34°35' E 138°46'5 9.1
2017-Dec-17 03:58N 34°35' E 138°51'4 9.4
2017-Dec-17 03:30N 34°36' E 138°57'610.9
2017-Dec-17 02:59N 34°40' E 139°02'712.5
2017-Dec-17 02:24N 34°46' E 139°07'813.0
2017-Dec-17 01:46N 34°52' E 139°12'412.3
2017-Dec-17 01:26N 34°55' E 139°17'511.5
2017-Dec-17 00:58N 34°58' E 139°22'711.1
2017-Dec-17 00:19N 35°02' E 139°29'412.1
2017-Dec-17 00:00N 35°04' E 139°33'612.4
2017-Dec-16 23:30N 35°07' E 139°40'612.5
2017-Dec-16 23:00N 35°11' E 139°45'612.2
2017-Dec-16 22:30N 35°17' E 139°45'612.9
2017-Dec-16 22:00N 35°23' E 139°43'5 9.8
2017-Dec-16 21:30N 35°24' E 139°49'5 9.4
2017-Dec-16 21:00N 35°22' E 139°54'0 0.1
2017-Dec-16 20:22N 35°22' E 139°54'0 0.0
2017-Dec-16 19:55N 35°22' E 139°54'0 0.0
2017-Dec-16 19:28N 35°22' E 139°54'0 0.0
2017-Dec-16 18:55N 35°22' E 139°54'0 0.0
2017-Dec-16 18:22N 35°22' E 139°54'0 0.0
2017-Dec-16 17:55N 35°22' E 139°54'0 0.0
2017-Dec-16 17:22N 35°22' E 139°54'0 0.0
2017-Dec-16 16:31N 35°22' E 139°54'0 0.0
2017-Dec-16 16:28N 35°22' E 139°54'0 0.0
2017-Dec-16 15:52N 35°22' E 139°54'0 0.0
2017-Dec-16 15:25N 35°22' E 139°54'0 0.0
2017-Dec-16 14:55N 35°22' E 139°54'0 0.0
2017-Dec-16 14:28N 35°22' E 139°54'0 0.0
2017-Dec-16 13:55N 35°22' E 139°54'0 0.0
2017-Dec-16 13:28N 35°22' E 139°54'0 0.0
2017-Dec-16 12:58N 35°22' E 139°54'0 0.0
2017-Dec-16 12:28N 35°22' E 139°54'0 0.0
2017-Dec-16 11:55N 35°22' E 139°54'0 0.0
2017-Dec-16 11:28N 35°22' E 139°54'0 0.0
2017-Dec-16 10:43N 35°22' E 139°54'0 0.0
2017-Dec-16 10:28N 35°22' E 139°54'0 0.0
2017-Dec-16 09:58N 35°22' E 139°54'0 0.0
2017-Dec-16 09:25N 35°22' E 139°54'0 0.0
2017-Dec-16 08:49N 35°22' E 139°54'0 0.0
2017-Dec-16 08:28N 35°22' E 139°54'0 0.0
2017-Dec-16 07:55N 35°22' E 139°54'0 0.0
2017-Dec-16 05:37N 35°22' E 139°54'0 0.0
2017-Dec-16 05:25N 35°22' E 139°54'0 0.0
2017-Dec-16 04:55N 35°22' E 139°54'0 0.0
2017-Dec-16 04:28N 35°22' E 139°54'0 0.0
2017-Dec-16 03:43N 35°22' E 139°54'0 0.0
2017-Dec-16 03:28N 35°22' E 139°54'0 0.0
2017-Dec-16 02:55N 35°22' E 139°54'0 0.0
2017-Dec-16 02:28N 35°22' E 139°54'0 0.0
2017-Dec-16 01:55N 35°22' E 139°54'0 0.0
2017-Dec-16 01:25N 35°22' E 139°54'0 0.0
2017-Dec-16 00:49N 35°22' E 139°54'0 0.0
2017-Dec-16 00:22N 35°22' E 139°54'0 0.0
2017-Dec-15 23:52N 35°22' E 139°54'0 0.0
2017-Dec-15 23:22N 35°22' E 139°54'0 0.0
2017-Dec-15 21:49N 35°22' E 139°54'0 0.0
2017-Dec-15 21:28N 35°22' E 139°54'0 0.0
2017-Dec-15 20:55N 35°22' E 139°54'0 0.0
2017-Dec-15 20:28N 35°22' E 139°54'0 0.0
2017-Dec-15 19:58N 35°22' E 139°54'0 0.0
2017-Dec-15 19:25N 35°22' E 139°54'0 0.0
2017-Dec-15 18:55N 35°22' E 139°54'0 0.0
2017-Dec-15 18:28N 35°22' E 139°54'0 0.1
2017-Dec-15 17:58N 35°22' E 139°54'0 0.1
2017-Dec-15 17:25N 35°22' E 139°54'0 0.0
2017-Dec-15 16:58N 35°22' E 139°54'0 0.0
2017-Dec-15 16:25N 35°22' E 139°54'0 0.0
2017-Dec-15 15:58N 35°22' E 139°54'0 0.1
2017-Dec-15 15:22N 35°22' E 139°54'0 0.1
2017-Dec-15 14:58N 35°22' E 139°54'0 0.1
2017-Dec-15 14:22N 35°22' E 139°54'0 0.1
2017-Dec-15 13:58N 35°22' E 139°54'0 0.0
2017-Dec-15 13:28N 35°22' E 139°54'0 0.1
2017-Dec-15 12:52N 35°22' E 139°54'0 0.1
2017-Dec-15 12:28N 35°22' E 139°54'0 0.0
2017-Dec-15 11:58N 35°22' E 139°54'0 0.0
2017-Dec-15 11:28N 35°22' E 139°54'0 0.1
2017-Dec-15 10:52N 35°22' E 139°54'0 0.0
2017-Dec-15 10:28N 35°22' E 139°54'0 0.1
2017-Dec-15 10:00N 35°22' E 139°54'0 0.2
2017-Dec-15 09:30N 35°22' E 139°54'0 0.5
2017-Dec-15 09:00N 35°22' E 139°53'2 4.3
2017-Dec-15 08:30N 35°23' E 139°51'713.5
2017-Dec-15 08:00N 35°30' E 139°51'713.3
2017-Dec-15 07:30N 35°36' E 139°50'2 0.1
2017-Dec-14 06:44N 35°38' E 139°48'1 4.6
2017-Dec-14 06:30N 35°37' E 139°49'3 4.9
2017-Dec-14 05:59N 35°36' E 139°52'510.3
2017-Dec-14 05:30N 35°31' E 139°53'4 8.6
2017-Dec-14 05:00N 35°27' E 139°50'5 9.8
2017-Dec-14 04:30N 35°24' E 139°46'510.1
2017-Dec-14 04:00N 35°19' E 139°44'510.5
2017-Dec-14 03:30N 35°14' E 139°47'511.0
2017-Dec-14 03:00N 35°09' E 139°46'611.2
2017-Dec-14 02:28N 35°03' E 139°43'612.1
2017-Dec-14 02:00N 34°60' E 139°38'912.9
2017-Dec-14 01:16N 34°55' E 139°28'312.5
2017-Dec-14 01:00N 34°53' E 139°25'712.2
2017-Dec-14 00:27N 34°48' E 139°18'612.7
2017-Dec-14 00:00N 34°44' E 139°13'612.6
2017-Dec-13 23:30N 34°40' E 139°08'712.2
2017-Dec-13 22:56N 34°36' E 139°01'612.0
2017-Dec-13 22:27N 34°35' E 138°54'612.3
2017-Dec-13 21:59N 34°35' E 138°47'612.3
2017-Dec-13 21:28N 34°34' E 138°39'612.8
2017-Dec-13 21:01N 34°34' E 138°32'913.0
2017-Dec-13 20:19N 34°34' E 138°21'413.2
2017-Dec-13 20:00N 34°34' E 138°16'714.0
2017-Dec-13 19:29N 34°34' E 138°07'714.2
2017-Dec-13 18:59N 34°35' E 137°59'15310.6
2017-Dec-13 04:36N 33°53' E 135°01'213.0
2017-Dec-13 04:25N 33°54' E 134°59'613.1
2017-Dec-13 03:59N 33°59' E 134°54'713.4
2017-Dec-13 03:26N 34°04' E 134°49'613.5
2017-Dec-13 02:59N 34°09' E 134°44'714.0
2017-Dec-13 02:31N 34°14' E 134°39'713.0
2017-Dec-13 02:00N 34°20' E 134°37'712.7
2017-Dec-13 01:25N 34°27' E 134°33'512.4
2017-Dec-13 01:00N 34°32' E 134°36'812.3
2017-Dec-13 00:20N 34°40' E 134°38'412.5
2017-Dec-13 00:00N 34°44' E 134°38'3 5.3
2017-Dec-12 23:29N 34°47' E 134°38'0 0.0
2017-Dec-12 20:35N 34°47' E 134°38'0 0.1
2017-Dec-12 20:29N 34°47' E 134°38'0 0.0
2017-Dec-12 19:59N 34°47' E 134°38'0 0.0
2017-Dec-12 18:41N 34°47' E 134°38'0 0.0
2017-Dec-12 18:23N 34°47' E 134°38'0 0.0
2017-Dec-12 11:53N 34°47' E 134°38'0 0.0
2017-Dec-12 11:23N 34°47' E 134°38'0 0.0
2017-Dec-12 10:59N 34°47' E 134°38'0 0.0
2017-Dec-12 10:29N 34°47' E 134°38'0 0.0
2017-Dec-12 09:59N 34°47' E 134°38'0 0.0
2017-Dec-12 09:23N 34°47' E 134°38'0 0.0
2017-Dec-12 08:59N 34°47' E 134°38'0 0.0
2017-Dec-12 07:53N 34°47' E 134°38'0 0.0
2017-Dec-12 07:29N 34°47' E 134°38'0 0.0
2017-Dec-12 02:59N 34°47' E 134°38'0 0.0
2017-Dec-12 02:20N 34°47' E 134°38'2 5.4
2017-Dec-12 01:57N 34°45' E 134°39'0 0.0
2017-Dec-11 12:47N 34°45' E 134°39'1 4.2
2017-Dec-11 12:28N 34°44' E 134°40'612.2
2017-Dec-11 12:00N 34°41' E 134°46'611.3
2017-Dec-11 11:30N 34°38' E 134°52'510.1
2017-Dec-11 11:00N 34°37' E 134°58'5 9.7
2017-Dec-11 10:30N 34°36' E 135°03'611.7
2017-Dec-11 10:00N 34°36' E 135°10'612.3
2017-Dec-11 09:30N 34°37' E 135°18'611.9
2017-Dec-11 09:00N 34°39' E 135°25'2 4.5
2017-Dec-11 08:30N 34°38' E 135°27'0 0.0
2017-Dec-11 08:00N 34°38' E 135°27'0 0.0
2017-Dec-11 07:30N 34°38' E 135°27'0 0.0
2017-Dec-11 07:00N 34°38' E 135°27'0 0.0
2017-Dec-11 06:30N 34°38' E 135°27'0 0.0
2017-Dec-11 06:00N 34°38' E 135°27'0 0.0
2017-Dec-11 05:30N 34°38' E 135°27'0 0.0
2017-Dec-11 05:00N 34°38' E 135°27'0 0.1
2017-Dec-11 04:30N 34°38' E 135°27'0 0.1
2017-Dec-11 04:00N 34°38' E 135°27'0 0.0
2017-Dec-11 03:30N 34°38' E 135°27'0 0.1
2017-Dec-11 03:00N 34°38' E 135°27'0 0.0
2017-Dec-11 02:30N 34°38' E 135°27'0 0.1
2017-Dec-11 02:00N 34°38' E 135°27'0 0.0
2017-Dec-11 01:27N 34°38' E 135°27'0 0.1
2017-Dec-11 01:00N 34°38' E 135°27'0 0.0
2017-Dec-11 00:30N 34°38' E 135°27'0 0.1
2017-Dec-11 00:00N 34°38' E 135°27'0 0.0
2017-Dec-10 23:30N 34°38' E 135°27'4 7.4
2017-Dec-10 23:00N 34°38' E 135°23'612.6
2017-Dec-10 22:30N 34°33' E 135°17'612.4
2017-Dec-10 22:00N 34°28' E 135°12'612.2
2017-Dec-10 21:31N 34°23' E 135°08'612.3
2017-Dec-10 21:00N 34°18' E 135°04'4 8.6
2017-Dec-10 20:31N 34°14' E 135°06'1 1.3
2017-Dec-10 19:58N 34°15' E 135°07'0 0.0
2017-Dec-10 19:28N 34°15' E 135°07'0 0.0
2017-Dec-10 18:58N 34°15' E 135°07'0 0.0
2017-Dec-10 18:28N 34°15' E 135°07'0 0.0
2017-Dec-10 17:58N 34°15' E 135°07'0 0.0
2017-Dec-10 17:28N 34°15' E 135°07'0 0.0
2017-Dec-10 16:58N 34°15' E 135°07'0 0.0
2017-Dec-10 16:28N 34°15' E 135°07'0 0.0
2017-Dec-10 15:58N 34°15' E 135°07'0 0.0
2017-Dec-10 15:28N 34°15' E 135°07'0 0.0
2017-Dec-10 14:55N 34°15' E 135°07'0 0.0
2017-Dec-10 14:25N 34°15' E 135°07'0 0.0
2017-Dec-10 13:58N 34°15' E 135°07'0 0.0
2017-Dec-10 13:25N 34°15' E 135°07'0 0.0
2017-Dec-10 12:58N 34°15' E 135°07'0 0.0
2017-Dec-10 12:22N 34°15' E 135°07'0 0.0
2017-Dec-10 11:55N 34°15' E 135°07'0 0.0
2017-Dec-10 11:28N 34°15' E 135°07'0 0.0
2017-Dec-10 10:58N 34°15' E 135°07'0 0.0
2017-Dec-10 10:28N 34°15' E 135°07'0 0.0
2017-Dec-10 09:55N 34°15' E 135°07'0 0.0
2017-Dec-10 09:28N 34°15' E 135°07'0 0.0
2017-Dec-10 08:58N 34°15' E 135°07'0 0.0
2017-Dec-10 08:25N 34°15' E 135°07'0 0.0
2017-Dec-10 07:58N 34°15' E 135°07'0 0.0
2017-Dec-10 07:28N 34°15' E 135°07'0 0.0
2017-Dec-10 06:55N 34°15' E 135°07'0 0.0
2017-Dec-10 06:22N 34°15' E 135°07'0 0.0
2017-Dec-10 05:58N 34°15' E 135°07'0 0.0
2017-Dec-10 05:28N 34°15' E 135°07'0 0.0
2017-Dec-10 04:58N 34°15' E 135°07'0 0.0
2017-Dec-10 04:25N 34°15' E 135°07'0 0.0
2017-Dec-10 03:55N 34°15' E 135°07'0 0.0
2017-Dec-10 03:28N 34°15' E 135°07'0 0.0
2017-Dec-10 02:58N 34°15' E 135°07'0 0.0
2017-Dec-10 02:22N 34°15' E 135°07'0 0.0
2017-Dec-10 01:58N 34°15' E 135°07'0 0.0
2017-Dec-10 01:28N 34°15' E 135°07'0 0.0
2017-Dec-10 00:55N 34°15' E 135°07'0 0.0
2017-Dec-10 00:28N 34°15' E 135°07'0 0.0
2017-Dec-10 00:01N 34°15' E 135°07'1 2.0
2017-Dec-09 23:30N 34°15' E 135°06'0 0.0
2017-Dec-09 22:58N 34°15' E 135°06'2 4.3
2017-Dec-09 22:31N 34°13' E 135°04'612.6
2017-Dec-09 22:00N 34°07' E 135°02'611.3
2017-Dec-09 21:29N 34°01' E 135°01'611.4
2017-Dec-09 21:00N 33°56' E 135°01'112 8.5
2017-Dec-09 07:49N 34°41' E 137°05'412.6
2017-Dec-09 07:30N 34°42' E 137°10'10 0.8
2017-Dec-08 19:53N 34°38' E 136°59'15 9.4
2017-Dec-08 18:16N 34°35' E 137°18'4811.0
2017-Dec-08 13:52N 34°35' E 138°16'1011.3
2017-Dec-08 13:01N 34°35' E 138°28'110.6
2017-Dec-08 12:56N 34°35' E 138°29'410.5
2017-Dec-08 12:30N 34°36' E 138°35'8 9.8
2017-Dec-08 11:41N 34°35' E 138°44'310.1
2017-Dec-08 11:21N 34°35' E 138°48'4 9.8
2017-Dec-08 10:55N 34°35' E 138°54'511.1
2017-Dec-08 10:26N 34°37' E 138°59'613.3
2017-Dec-08 09:57N 34°42' E 139°04'713.2
2017-Dec-08 09:26N 34°47' E 139°10'2010.1
2017-Dec-08 07:26N 34°55' E 139°33'610.7
2017-Dec-08 06:50N 34°54' E 139°40'21 9.9
2017-Dec-08 04:42N 34°58' E 140°06'  
Track history (hours):
 
Tides and Currents Weather Stations Pressure Air Temp Water Temp Dewpoint Dewpoint Depression Visibility Wind Speed Wind Dir Waves Ship Positions

Masuei Maru

Last reported at 2017-Dec-17 07:06 UTC. Time now 2017-Dec-17 15:59 UTC.
Position N 34°34' E 138°15'.

Length 75 m; draft 4.5 m.

Type: Cargo ship. MMSI: 431008431.

Date/timePositionNaut miles runAvg speedWind from/ knotsBaromVisibWave heightAir tempDewpointWater temp
2017-Dec-17 07:06N 34°34' E 138°15'2 9.4
2017-Dec-17 06:52N 34°34' E 138°18'6 9.5
2017-Dec-17 06:15N 34°36' E 138°24'310.1
2017-Dec-17 05:56N 34°36' E 138°28'5 9.7
2017-Dec-17 05:28N 34°37' E 138°34'510.4
2017-Dec-17 04:59N 34°36' E 138°40'5 9.6
2017-Dec-17 04:29N 34°35' E 138°46'5 9.1
2017-Dec-17 03:58N 34°35' E 138°51'4 9.4
2017-Dec-17 03:30N 34°36' E 138°57'610.9
2017-Dec-17 02:59N 34°40' E 139°02'712.5
2017-Dec-17 02:24N 34°46' E 139°07'813.0
2017-Dec-17 01:46N 34°52' E 139°12'412.3
2017-Dec-17 01:26N 34°55' E 139°17'511.5
2017-Dec-17 00:58N 34°58' E 139°22'711.1
2017-Dec-17 00:19N 35°02' E 139°29'412.1
2017-Dec-17 00:00N 35°04' E 139°33'612.4
2017-Dec-16 23:30N 35°07' E 139°40'612.5
2017-Dec-16 23:00N 35°11' E 139°45'612.2
2017-Dec-16 22:30N 35°17' E 139°45'612.9
2017-Dec-16 22:00N 35°23' E 139°43'5 9.8
2017-Dec-16 21:30N 35°24' E 139°49'5 9.4
2017-Dec-16 21:00N 35°22' E 139°54'0 0.1
2017-Dec-16 20:22N 35°22' E 139°54'0 0.0
2017-Dec-16 19:55N 35°22' E 139°54'0 0.0
2017-Dec-16 19:28N 35°22' E 139°54'0 0.0
2017-Dec-16 18:55N 35°22' E 139°54'0 0.0
2017-Dec-16 18:22N 35°22' E 139°54'0 0.0
2017-Dec-16 17:55N 35°22' E 139°54'0 0.0
2017-Dec-16 17:22N 35°22' E 139°54'0 0.0
2017-Dec-16 16:31N 35°22' E 139°54'0 0.0
2017-Dec-16 16:28N 35°22' E 139°54'0 0.0
2017-Dec-16 15:52N 35°22' E 139°54'0 0.0
2017-Dec-16 15:25N 35°22' E 139°54'0 0.0
2017-Dec-16 14:55N 35°22' E 139°54'0 0.0
2017-Dec-16 14:28N 35°22' E 139°54'0 0.0
2017-Dec-16 13:55N 35°22' E 139°54'0 0.0
2017-Dec-16 13:28N 35°22' E 139°54'0 0.0
2017-Dec-16 12:58N 35°22' E 139°54'0 0.0
2017-Dec-16 12:28N 35°22' E 139°54'0 0.0
2017-Dec-16 11:55N 35°22' E 139°54'0 0.0
2017-Dec-16 11:28N 35°22' E 139°54'0 0.0
2017-Dec-16 10:43N 35°22' E 139°54'0 0.0
2017-Dec-16 10:28N 35°22' E 139°54'0 0.0
2017-Dec-16 09:58N 35°22' E 139°54'0 0.0
2017-Dec-16 09:25N 35°22' E 139°54'0 0.0
2017-Dec-16 08:49N 35°22' E 139°54'0 0.0
2017-Dec-16 08:28N 35°22' E 139°54'0 0.0
2017-Dec-16 07:55N 35°22' E 139°54'0 0.0
2017-Dec-16 05:37N 35°22' E 139°54'0 0.0
2017-Dec-16 05:25N 35°22' E 139°54'0 0.0
2017-Dec-16 04:55N 35°22' E 139°54'0 0.0
2017-Dec-16 04:28N 35°22' E 139°54'0 0.0
2017-Dec-16 03:43N 35°22' E 139°54'0 0.0
2017-Dec-16 03:28N 35°22' E 139°54'0 0.0
2017-Dec-16 02:55N 35°22' E 139°54'0 0.0
2017-Dec-16 02:28N 35°22' E 139°54'0 0.0
2017-Dec-16 01:55N 35°22' E 139°54'0 0.0
2017-Dec-16 01:25N 35°22' E 139°54'0 0.0
2017-Dec-16 00:49N 35°22' E 139°54'0 0.0
2017-Dec-16 00:22N 35°22' E 139°54'0 0.0
2017-Dec-15 23:52N 35°22' E 139°54'0 0.0
2017-Dec-15 23:22N 35°22' E 139°54'0 0.0
2017-Dec-15 21:49N 35°22' E 139°54'0 0.0
2017-Dec-15 21:28N 35°22' E 139°54'0 0.0
2017-Dec-15 20:55N 35°22' E 139°54'0 0.0
2017-Dec-15 20:28N 35°22' E 139°54'0 0.0
2017-Dec-15 19:58N 35°22' E 139°54'0 0.0
2017-Dec-15 19:25N 35°22' E 139°54'0 0.0
2017-Dec-15 18:55N 35°22' E 139°54'0 0.0
2017-Dec-15 18:28N 35°22' E 139°54'0 0.1
2017-Dec-15 17:58N 35°22' E 139°54'0 0.1
2017-Dec-15 17:25N 35°22' E 139°54'0 0.0
2017-Dec-15 16:58N 35°22' E 139°54'0 0.0
2017-Dec-15 16:25N 35°22' E 139°54'0 0.0
2017-Dec-15 15:58N 35°22' E 139°54'0 0.1
2017-Dec-15 15:22N 35°22' E 139°54'0 0.1
2017-Dec-15 14:58N 35°22' E 139°54'0 0.1
2017-Dec-15 14:22N 35°22' E 139°54'0 0.1
2017-Dec-15 13:58N 35°22' E 139°54'0 0.0
2017-Dec-15 13:28N 35°22' E 139°54'0 0.1
2017-Dec-15 12:52N 35°22' E 139°54'0 0.1
2017-Dec-15 12:28N 35°22' E 139°54'0 0.0
2017-Dec-15 11:58N 35°22' E 139°54'0 0.0
2017-Dec-15 11:28N 35°22' E 139°54'0 0.1
2017-Dec-15 10:52N 35°22' E 139°54'0 0.0
2017-Dec-15 10:28N 35°22' E 139°54'0 0.1
2017-Dec-15 10:00N 35°22' E 139°54'0 0.2
2017-Dec-15 09:30N 35°22' E 139°54'0 0.5
2017-Dec-15 09:00N 35°22' E 139°53'2 4.3
2017-Dec-15 08:30N 35°23' E 139°51'713.5
2017-Dec-15 08:00N 35°30' E 139°51'713.3
2017-Dec-15 07:30N 35°36' E 139°50'2 0.1
2017-Dec-14 06:44N 35°38' E 139°48'1 4.6
2017-Dec-14 06:30N 35°37' E 139°49'3 4.9
2017-Dec-14 05:59N 35°36' E 139°52'510.3
2017-Dec-14 05:30N 35°31' E 139°53'4 8.6
2017-Dec-14 05:00N 35°27' E 139°50'5 9.8
2017-Dec-14 04:30N 35°24' E 139°46'510.1
2017-Dec-14 04:00N 35°19' E 139°44'510.5
2017-Dec-14 03:30N 35°14' E 139°47'511.0
2017-Dec-14 03:00N 35°09' E 139°46'611.2
2017-Dec-14 02:28N 35°03' E 139°43'612.1
2017-Dec-14 02:00N 34°60' E 139°38'912.9
2017-Dec-14 01:16N 34°55' E 139°28'312.5
2017-Dec-14 01:00N 34°53' E 139°25'712.2
2017-Dec-14 00:27N 34°48' E 139°18'612.7
2017-Dec-14 00:00N 34°44' E 139°13'612.6
2017-Dec-13 23:30N 34°40' E 139°08'712.2
2017-Dec-13 22:56N 34°36' E 139°01'612.0
2017-Dec-13 22:27N 34°35' E 138°54'612.3
2017-Dec-13 21:59N 34°35' E 138°47'612.3
2017-Dec-13 21:28N 34°34' E 138°39'612.8
2017-Dec-13 21:01N 34°34' E 138°32'913.0
2017-Dec-13 20:19N 34°34' E 138°21'413.2
2017-Dec-13 20:00N 34°34' E 138°16'714.0
2017-Dec-13 19:29N 34°34' E 138°07'714.2
2017-Dec-13 18:59N 34°35' E 137°59'15310.6
2017-Dec-13 04:36N 33°53' E 135°01'213.0
2017-Dec-13 04:25N 33°54' E 134°59'613.1
2017-Dec-13 03:59N 33°59' E 134°54'713.4
2017-Dec-13 03:26N 34°04' E 134°49'613.5
2017-Dec-13 02:59N 34°09' E 134°44'714.0
2017-Dec-13 02:31N 34°14' E 134°39'713.0
2017-Dec-13 02:00N 34°20' E 134°37'712.7
2017-Dec-13 01:25N 34°27' E 134°33'512.4
2017-Dec-13 01:00N 34°32' E 134°36'812.3
2017-Dec-13 00:20N 34°40' E 134°38'412.5
2017-Dec-13 00:00N 34°44' E 134°38'3 5.3
2017-Dec-12 23:29N 34°47' E 134°38'0 0.0
2017-Dec-12 20:35N 34°47' E 134°38'0 0.1
2017-Dec-12 20:29N 34°47' E 134°38'0 0.0
2017-Dec-12 19:59N 34°47' E 134°38'0 0.0
2017-Dec-12 18:41N 34°47' E 134°38'0 0.0
2017-Dec-12 18:23N 34°47' E 134°38'0 0.0
2017-Dec-12 11:53N 34°47' E 134°38'0 0.0
2017-Dec-12 11:23N 34°47' E 134°38'0 0.0
2017-Dec-12 10:59N 34°47' E 134°38'0 0.0
2017-Dec-12 10:29N 34°47' E 134°38'0 0.0
2017-Dec-12 09:59N 34°47' E 134°38'0 0.0
2017-Dec-12 09:23N 34°47' E 134°38'0 0.0
2017-Dec-12 08:59N 34°47' E 134°38'0 0.0
2017-Dec-12 07:53N 34°47' E 134°38'0 0.0
2017-Dec-12 07:29N 34°47' E 134°38'0 0.0
2017-Dec-12 02:59N 34°47' E 134°38'0 0.0
2017-Dec-12 02:20N 34°47' E 134°38'2 5.4
2017-Dec-12 01:57N 34°45' E 134°39'0 0.0
2017-Dec-11 12:47N 34°45' E 134°39'1 4.2
2017-Dec-11 12:28N 34°44' E 134°40'612.2
2017-Dec-11 12:00N 34°41' E 134°46'611.3
2017-Dec-11 11:30N 34°38' E 134°52'510.1
2017-Dec-11 11:00N 34°37' E 134°58'5 9.7
2017-Dec-11 10:30N 34°36' E 135°03'611.7
2017-Dec-11 10:00N 34°36' E 135°10'612.3
2017-Dec-11 09:30N 34°37' E 135°18'611.9
2017-Dec-11 09:00N 34°39' E 135°25'2 4.5
2017-Dec-11 08:30N 34°38' E 135°27'0 0.0
2017-Dec-11 08:00N 34°38' E 135°27'0 0.0
2017-Dec-11 07:30N 34°38' E 135°27'0 0.0
2017-Dec-11 07:00N 34°38' E 135°27'0 0.0
2017-Dec-11 06:30N 34°38' E 135°27'0 0.0
2017-Dec-11 06:00N 34°38' E 135°27'0 0.0
2017-Dec-11 05:30N 34°38' E 135°27'0 0.0
2017-Dec-11 05:00N 34°38' E 135°27'0 0.1
2017-Dec-11 04:30N 34°38' E 135°27'0 0.1
2017-Dec-11 04:00N 34°38' E 135°27'0 0.0
2017-Dec-11 03:30N 34°38' E 135°27'0 0.1
2017-Dec-11 03:00N 34°38' E 135°27'0 0.0
2017-Dec-11 02:30N 34°38' E 135°27'0 0.1
2017-Dec-11 02:00N 34°38' E 135°27'0 0.0
2017-Dec-11 01:27N 34°38' E 135°27'0 0.1
2017-Dec-11 01:00N 34°38' E 135°27'0 0.0
2017-Dec-11 00:30N 34°38' E 135°27'0 0.1
2017-Dec-11 00:00N 34°38' E 135°27'0 0.0
2017-Dec-10 23:30N 34°38' E 135°27'4 7.4
2017-Dec-10 23:00N 34°38' E 135°23'612.6
2017-Dec-10 22:30N 34°33' E 135°17'612.4
2017-Dec-10 22:00N 34°28' E 135°12'612.2
2017-Dec-10 21:31N 34°23' E 135°08'612.3
2017-Dec-10 21:00N 34°18' E 135°04'4 8.6
2017-Dec-10 20:31N 34°14' E 135°06'1 1.3
2017-Dec-10 19:58N 34°15' E 135°07'0 0.0
2017-Dec-10 19:28N 34°15' E 135°07'0 0.0
2017-Dec-10 18:58N 34°15' E 135°07'0 0.0
2017-Dec-10 18:28N 34°15' E 135°07'0 0.0
2017-Dec-10 17:58N 34°15' E 135°07'0 0.0
2017-Dec-10 17:28N 34°15' E 135°07'0 0.0
2017-Dec-10 16:58N 34°15' E 135°07'0 0.0
2017-Dec-10 16:28N 34°15' E 135°07'0 0.0
2017-Dec-10 15:58N 34°15' E 135°07'0 0.0
2017-Dec-10 15:28N 34°15' E 135°07'0 0.0
2017-Dec-10 14:55N 34°15' E 135°07'0 0.0
2017-Dec-10 14:25N 34°15' E 135°07'0 0.0
2017-Dec-10 13:58N 34°15' E 135°07'0 0.0
2017-Dec-10 13:25N 34°15' E 135°07'0 0.0
2017-Dec-10 12:58N 34°15' E 135°07'0 0.0
2017-Dec-10 12:22N 34°15' E 135°07'0 0.0
2017-Dec-10 11:55N 34°15' E 135°07'0 0.0
2017-Dec-10 11:28N 34°15' E 135°07'0 0.0
2017-Dec-10 10:58N 34°15' E 135°07'0 0.0
2017-Dec-10 10:28N 34°15' E 135°07'0 0.0
2017-Dec-10 09:55N 34°15' E 135°07'0 0.0
2017-Dec-10 09:28N 34°15' E 135°07'0 0.0
2017-Dec-10 08:58N 34°15' E 135°07'0 0.0
2017-Dec-10 08:25N 34°15' E 135°07'0 0.0
2017-Dec-10 07:58N 34°15' E 135°07'0 0.0
2017-Dec-10 07:28N 34°15' E 135°07'0 0.0
2017-Dec-10 06:55N 34°15' E 135°07'0 0.0
2017-Dec-10 06:22N 34°15' E 135°07'0 0.0
2017-Dec-10 05:58N 34°15' E 135°07'0 0.0
2017-Dec-10 05:28N 34°15' E 135°07'0 0.0
2017-Dec-10 04:58N 34°15' E 135°07'0 0.0
2017-Dec-10 04:25N 34°15' E 135°07'0 0.0
2017-Dec-10 03:55N 34°15' E 135°07'0 0.0
2017-Dec-10 03:28N 34°15' E 135°07'0 0.0
2017-Dec-10 02:58N 34°15' E 135°07'0 0.0
2017-Dec-10 02:22N 34°15' E 135°07'0 0.0
2017-Dec-10 01:58N 34°15' E 135°07'0 0.0
2017-Dec-10 01:28N 34°15' E 135°07'0 0.0
2017-Dec-10 00:55N 34°15' E 135°07'0 0.0
2017-Dec-10 00:28N 34°15' E 135°07'0 0.0
2017-Dec-10 00:01N 34°15' E 135°07'1 2.0
2017-Dec-09 23:30N 34°15' E 135°06'0 0.0
2017-Dec-09 22:58N 34°15' E 135°06'2 4.3
2017-Dec-09 22:31N 34°13' E 135°04'612.6
2017-Dec-09 22:00N 34°07' E 135°02'611.3
2017-Dec-09 21:29N 34°01' E 135°01'611.4
2017-Dec-09 21:00N 33°56' E 135°01'112 8.5
2017-Dec-09 07:49N 34°41' E 137°05'412.6
2017-Dec-09 07:30N 34°42' E 137°10'10 0.8
2017-Dec-08 19:53N 34°38' E 136°59'15 9.4
2017-Dec-08 18:16N 34°35' E 137°18'4811.0
2017-Dec-08 13:52N 34°35' E 138°16'1011.3
2017-Dec-08 13:01N 34°35' E 138°28'110.6
2017-Dec-08 12:56N 34°35' E 138°29'410.5
2017-Dec-08 12:30N 34°36' E 138°35'8 9.8
2017-Dec-08 11:41N 34°35' E 138°44'310.1
2017-Dec-08 11:21N 34°35' E 138°48'4 9.8
2017-Dec-08 10:55N 34°35' E 138°54'511.1
2017-Dec-08 10:26N 34°37' E 138°59'613.3
2017-Dec-08 09:57N 34°42' E 139°04'713.2
2017-Dec-08 09:26N 34°47' E 139°10'2010.1
2017-Dec-08 07:26N 34°55' E 139°33'610.7
2017-Dec-08 06:50N 34°54' E 139°40'21 9.9
2017-Dec-08 04:42N 34°58' E 140°06'  

Dump ship's entire track history